EBCV

Details ICAO EBCV
Name Chievres AB
Region Belgium
Timezone Europe/Brussels (UTC+1.0)
Plans Departing 4
Arriving 5
Stats Elevation 201 ft / 61 m (AMSL)
Location 50.575840° 3.831076°
Runways 1
Magnetic Variation 0.934° E
Sunrise 2017-12-12 07:38:09 UTC / 2017-12-12 08:38:09 Local
Sunset 2017-12-12 15:41:31 UTC / 2017-12-12 16:41:31 Local
Advertisement - Login to hide

Runways

ID Width Length Bearing (true) Bearing (mag) Surface Threshold Offset Overrun Length
08 164 ft / 50 m 6,288 ft / 1,917 m 79.82° 78.89° Asphalt 0 ft / 0 m 0 ft / 0 m
26 164 ft / 50 m 6,288 ft / 1,917 m 259.84° 258.91° Asphalt 0 ft / 0 m 0 ft / 0 m

Approach Navaids

Runway Type Ident Frequency Range Bearing (true) Bearing (mag) Slope Elevation
26 Localiser ICV 108.55 MHz 18 nm / 33 km 260.20° 259.26° - 201 ft / 61 m (AMSL)

Map

Weather


0- 5 10 15 20 25 30 35+ Temperature / ° C

Clouds and Precipitation
Forecast for 2017-12-12 06:00 UTC. Updated an hour ago

Ground ~20,000 ft ~40,000 ft Winds

METAR

EBCV 120425Z AUTO 26007KT 9999 OVC006/// 01/01 Q1001 YLO

TAF

Not found

Frequencies

Tower 136.50 MHz TWR
Approach 126.62 MHz BRUSSELS APP
Tower 122.10 MHz TWR
Departure 126.62 MHz BRUSSELS DEP
Warning: Do not use this data for real-world aviation or navigation. No guarantee of current accuracy is given.